Main page
METAR-TAF:

METAR-TAF

Airports :

Tuzla International Airport

Tuzla, Bosnia and Herzegovina

latitude: 44-33N, longitude: 018-42E, elevation: 306 m

Current weather observation

The report was made 31 minutes ago, at 07:30 UTC
Wind 5 kt from the East
Temperature -1°C
Humidity 100%
Pressure 1022 hPa
Visibility: 5000 m
mist

METAR: LQTZ 160730Z 09005KT 5000 BR NSC M01/M01 Q1022

Time: 09:01 (08:01 UTC)

Forecast

The report was made 3 hours and 1 minutes ago, at 05:00 UTC
Forecast valid from 16 at 06 UTC to 17 at 06 UTC
Wind 4 kt from the East/Southeast
Visibility 10 km or more
no clouds below 1500 m and no cumulonimbus
Probability 40% :
Temporary
from 16 at 06 UTC to 16 at 09 UTC
Visibility: 3000 m
mist
Probability 40% :
Temporary
from 16 at 22 UTC to 17 at 06 UTC
Visibility: 3000 m
mist

TAF: LQTZ 160500Z 1606/1706 11004KT CAVOK TX15/1613Z TNM02/1606Z PROB40 TEMPO 1606/1609 3000 BR PROB40 TEMPO 1622/1706 3000 BR

Weather observations and forecasts of more than 4000 airports (METAR and TAF reports).

The available stations are represented by yellow and red dots on the map.

Hover mouse over dot to see the name of the station.

Then click to see weather observations and forecasts.

To change the map : click on the green buttons with a black cross to zoom in, on the green button with a dash to zoom out, or on the green arrows for adjacent maps.


METAR-TAF: